Aérodrome :
LOGIN :

S'inscrire | Disclaimer

   EN    FR    IT 

 










Légende :    VFR   VFR Marginal   IFR   IFR Intensif   IFR Très Intensif
Visi : 
Plafond : 
>= 8 km
>= 3000ft
5 à 8 km
1000 à 3000 ft
1500m à 5 km
500 à 1000 ft
800 à 1500m
200 à 500 ft
< 800m
< 200 ft
Symboles :   Orages  Brouillard  Fortes neiges  Fortes précipitations  Vent > 20 kt
SIGMETs :   Divers  Orages  Givrage  Turbulence  Onde Orograph.  Cendres Volcan.







- Altitude de l'aérodrome : 1234 ft
- Code IATA : LUX


ELLX - Luxembourg Findel

DERNIER METAR :
  • 260450Z 19006KT CAVOK 02/00 Q1015 NOSIG

METARs EXPIRÉS :
  • 260420Z 20006KT CAVOK 02/00 Q1015 NOSIG
  • 260350Z AUTO 20006KT 9999 BKN095/// 02/00 Q1015 NOSIG
  • 260320Z 19006KT 9000 NSC 02/00 Q1015 NOSIG
  • 260250Z 20005KT 9000 NSC 02/01 Q1015 NOSIG
  • 260220Z AUTO 20007KT 9999 OVC090/// 02/01 Q1015 NOSIG

TAF TAF ELLX
Valide du 26 à 00h jusqu'au 27 à 06h UTC


252300Z 2600/2706 23007KT 7000 NSC
TEMPO 2603/2608 3500 BR
BECMG 2608/2610 CAVOK
BECMG 2618/2620 BKN020
TEMPO 2700/2706 2500 -DZ BR BKN006
ATIS : +352 4798 27300
Météo : +352 4798 27010 / 27050
Pas de NOTAMs connus pour ce terrain.



MET'MAP, la Météo Aéronautique d'un coup d'oeil ! - Copyright ORBIFLY Décembre 2007 - Disclaimer

ORBIFLY MET'MAP TEAM :

Programmation & Développement : Alexandra Zaïnal
Conception & Développement : Baudouin d'Aumeries
Co-Programmation & Développement : Marc-Olivier Méhu
Soutien technique & logistique : Manuel Goepfert

Contact : metmap@orbifly.com




SOURCES & CREDITS :

   NOAA